sensor_id;sensor_type;location;lat;lon;timestamp;temperature;humidity
21778;DHT22;11050;52.222;20.916;2023-04-03T00:00:51;2.20;99.90
21778;DHT22;11050;52.222;20.916;2023-04-03T00:03:17;2.10;99.90
21778;DHT22;11050;52.222;20.916;2023-04-03T00:05:44;2.10;99.90
21778;DHT22;11050;52.222;20.916;2023-04-03T00:08:10;2.10;99.90
21778;DHT22;11050;52.222;20.916;2023-04-03T00:10:37;2.10;99.90
21778;DHT22;11050;52.222;20.916;2023-04-03T00:13:04;2.00;99.90
21778;DHT22;11050;52.222;20.916;2023-04-03T00:15:31;2.00;99.90
21778;DHT22;11050;52.222;20.916;2023-04-03T00:17:57;1.90;99.90
21778;DHT22;11050;52.222;20.916;2023-04-03T00:20:23;1.90;99.90
21778;DHT22;11050;52.222;20.916;2023-04-03T00:22:49;1.90;99.90
21778;DHT22;11050;52.222;20.916;2023-04-03T00:25:15;1.80;99.90
21778;DHT22;11050;52.222;20.916;2023-04-03T00:27:41;1.80;99.90
21778;DHT22;11050;52.222;20.916;2023-04-03T00:30:09;1.70;99.90
21778;DHT22;11050;52.222;20.916;2023-04-03T00:32:38;1.70;99.90
21778;DHT22;11050;52.222;20.916;2023-04-03T00:35:04;1.60;99.90
21778;DHT22;11050;52.222;20.916;2023-04-03T00:37:30;1.60;99.90
21778;DHT22;11050;52.222;20.916;2023-04-03T00:39:56;1.50;99.90
21778;DHT22;11050;52.222;20.916;2023-04-03T00:42:22;1.50;99.90
21778;DHT22;11050;52.222;20.916;2023-04-03T00:47:16;1.40;99.90
21778;DHT22;11050;52.222;20.916;2023-04-03T00:49:43;1.40;99.90
21778;DHT22;11050;52.222;20.916;2023-04-03T00:52:15;1.30;99.90
21778;DHT22;11050;52.222;20.916;2023-04-03T00:54:45;1.30;99.90
21778;DHT22;11050;52.222;20.916;2023-04-03T00:57:13;1.30;99.90
21778;DHT22;11050;52.222;20.916;2023-04-03T00:59:46;1.20;99.90
21778;DHT22;11050;52.222;20.916;2023-04-03T01:02:17;1.20;99.90
21778;DHT22;11050;52.222;20.916;2023-04-03T01:04:44;1.20;99.90
21778;DHT22;11050;52.222;20.916;2023-04-03T01:07:18;1.20;99.90
21778;DHT22;11050;52.222;20.916;2023-04-03T01:09:48;1.10;99.90
21778;DHT22;11050;52.222;20.916;2023-04-03T01:12:21;1.10;99.90
21778;DHT22;11050;52.222;20.916;2023-04-03T01:14:51;1.00;99.90
21778;DHT22;11050;52.222;20.916;2023-04-03T01:20:43;0.90;99.90
21778;DHT22;11050;52.222;20.916;2023-04-03T01:26:18;0.80;99.90
21778;DHT22;11050;52.222;20.916;2023-04-03T01:28:43;0.80;99.90
21778;DHT22;11050;52.222;20.916;2023-04-03T01:31:25;0.80;99.90
21778;DHT22;11050;52.222;20.916;2023-04-03T01:33:54;0.70;99.90
21778;DHT22;11050;52.222;20.916;2023-04-03T01:36:26;0.70;99.90
21778;DHT22;11050;52.222;20.916;2023-04-03T01:38:56;0.70;99.90
21778;DHT22;11050;52.222;20.916;2023-04-03T01:41:24;0.70;99.90
21778;DHT22;11050;52.222;20.916;2023-04-03T01:43:52;0.70;99.90
21778;DHT22;11050;52.222;20.916;2023-04-03T01:46:18;0.60;99.90
21778;DHT22;11050;52.222;20.916;2023-04-03T01:48:45;0.60;99.90
21778;DHT22;11050;52.222;20.916;2023-04-03T01:51:12;0.60;99.90
21778;DHT22;11050;52.222;20.916;2023-04-03T01:53:37;0.60;99.90
21778;DHT22;11050;52.222;20.916;2023-04-03T01:56:03;0.50;99.90
21778;DHT22;11050;52.222;20.916;2023-04-03T01:58:30;0.50;99.90
21778;DHT22;11050;52.222;20.916;2023-04-03T02:00:55;0.50;99.90
21778;DHT22;11050;52.222;20.916;2023-04-03T02:03:21;0.50;99.90
21778;DHT22;11050;52.222;20.916;2023-04-03T02:05:48;0.50;99.90
21778;DHT22;11050;52.222;20.916;2023-04-03T02:08:15;0.50;99.90
21778;DHT22;11050;52.222;20.916;2023-04-03T02:10:44;0.40;99.90
21778;DHT22;11050;52.222;20.916;2023-04-03T02:13:12;0.40;99.90
21778;DHT22;11050;52.222;20.916;2023-04-03T02:15:38;0.40;99.90
21778;DHT22;11050;52.222;20.916;2023-04-03T02:18:05;0.30;99.90
21778;DHT22;11050;52.222;20.916;2023-04-03T02:20:31;0.30;99.90
21778;DHT22;11050;52.222;20.916;2023-04-03T02:22:57;0.30;99.90
21778;DHT22;11050;52.222;20.916;2023-04-03T02:25:24;0.30;99.90
21778;DHT22;11050;52.222;20.916;2023-04-03T02:27:50;0.30;99.90
21778;DHT22;11050;52.222;20.916;2023-04-03T02:30:16;0.20;99.90
21778;DHT22;11050;52.222;20.916;2023-04-03T02:32:42;0.20;99.90
21778;DHT22;11050;52.222;20.916;2023-04-03T02:35:09;0.20;99.90
21778;DHT22;11050;52.222;20.916;2023-04-03T02:37:35;0.20;99.90
21778;DHT22;11050;52.222;20.916;2023-04-03T02:40:02;0.10;99.90
21778;DHT22;11050;52.222;20.916;2023-04-03T02:42:28;0.10;99.90
21778;DHT22;11050;52.222;20.916;2023-04-03T02:44:54;0.10;99.90
21778;DHT22;11050;52.222;20.916;2023-04-03T02:47:20;0.10;99.90
21778;DHT22;11050;52.222;20.916;2023-04-03T02:49:46;0.00;99.90
21778;DHT22;11050;52.222;20.916;2023-04-03T02:52:13;0.00;99.90
21778;DHT22;11050;52.222;20.916;2023-04-03T02:54:39;0.00;99.90
21778;DHT22;11050;52.222;20.916;2023-04-03T02:57:05;0.00;99.90
21778;DHT22;11050;52.222;20.916;2023-04-03T02:59:35;0.00;99.90
21778;DHT22;11050;52.222;20.916;2023-04-03T03:02:01;-0.10;99.90
21778;DHT22;11050;52.222;20.916;2023-04-03T03:04:27;-0.10;99.90
21778;DHT22;11050;52.222;20.916;2023-04-03T03:06:53;-0.10;99.90
21778;DHT22;11050;52.222;20.916;2023-04-03T03:09:19;-0.10;99.90
21778;DHT22;11050;52.222;20.916;2023-04-03T03:11:44;-0.20;99.90
21778;DHT22;11050;52.222;20.916;2023-04-03T03:14:10;-0.20;99.90
21778;DHT22;11050;52.222;20.916;2023-04-03T03:16:36;-0.20;99.90
21778;DHT22;11050;52.222;20.916;2023-04-03T03:19:02;-0.20;99.90
21778;DHT22;11050;52.222;20.916;2023-04-03T03:21:28;-0.20;99.90
21778;DHT22;11050;52.222;20.916;2023-04-03T03:23:54;-0.20;99.90
21778;DHT22;11050;52.222;20.916;2023-04-03T03:26:20;-0.30;99.90
21778;DHT22;11050;52.222;20.916;2023-04-03T03:28:46;-0.30;99.90
21778;DHT22;11050;52.222;20.916;2023-04-03T03:31:11;-0.30;99.90
21778;DHT22;11050;52.222;20.916;2023-04-03T03:33:37;-0.30;99.90
21778;DHT22;11050;52.222;20.916;2023-04-03T03:36:04;-0.40;99.90
21778;DHT22;11050;52.222;20.916;2023-04-03T03:38:29;-0.40;99.90
21778;DHT22;11050;52.222;20.916;2023-04-03T03:40:55;-0.40;99.90
21778;DHT22;11050;52.222;20.916;2023-04-03T03:43:21;-0.40;99.90
21778;DHT22;11050;52.222;20.916;2023-04-03T03:45:51;-0.50;99.90
21778;DHT22;11050;52.222;20.916;2023-04-03T03:48:19;-0.50;99.90
21778;DHT22;11050;52.222;20.916;2023-04-03T03:50:45;-0.50;99.90
21778;DHT22;11050;52.222;20.916;2023-04-03T03:53:11;-0.50;99.90
21778;DHT22;11050;52.222;20.916;2023-04-03T03:55:38;-0.50;99.90
21778;DHT22;11050;52.222;20.916;2023-04-03T03:58:03;-0.50;99.90
21778;DHT22;11050;52.222;20.916;2023-04-03T04:00:29;-0.50;99.90
21778;DHT22;11050;52.222;20.916;2023-04-03T04:02:56;-0.60;99.90
21778;DHT22;11050;52.222;20.916;2023-04-03T04:05:22;-0.60;99.90
21778;DHT22;11050;52.222;20.916;2023-04-03T04:07:48;-0.60;99.90
21778;DHT22;11050;52.222;20.916;2023-04-03T04:10:14;-0.70;99.90
21778;DHT22;11050;52.222;20.916;2023-04-03T04:12:40;-0.70;99.90
21778;DHT22;11050;52.222;20.916;2023-04-03T04:15:06;-0.70;99.90
21778;DHT22;11050;52.222;20.916;2023-04-03T04:17:32;-0.70;99.90
21778;DHT22;11050;52.222;20.916;2023-04-03T04:19:58;-0.80;99.90
21778;DHT22;11050;52.222;20.916;2023-04-03T04:22:24;-0.80;99.90
21778;DHT22;11050;52.222;20.916;2023-04-03T04:24:50;-0.80;99.90
21778;DHT22;11050;52.222;20.916;2023-04-03T04:27:15;-0.80;99.90
21778;DHT22;11050;52.222;20.916;2023-04-03T04:29:41;-0.80;99.90
21778;DHT22;11050;52.222;20.916;2023-04-03T04:32:07;-0.90;99.90
21778;DHT22;11050;52.222;20.916;2023-04-03T04:34:34;-0.80;99.90
21778;DHT22;11050;52.222;20.916;2023-04-03T04:37:00;-0.90;99.90
21778;DHT22;11050;52.222;20.916;2023-04-03T04:39:26;-0.90;99.90
21778;DHT22;11050;52.222;20.916;2023-04-03T04:41:51;-0.90;99.90
21778;DHT22;11050;52.222;20.916;2023-04-03T04:44:17;-0.90;99.90
21778;DHT22;11050;52.222;20.916;2023-04-03T04:46:43;-0.90;99.90
21778;DHT22;11050;52.222;20.916;2023-04-03T04:49:09;-0.80;99.90
21778;DHT22;11050;52.222;20.916;2023-04-03T04:51:35;-0.80;99.90
21778;DHT22;11050;52.222;20.916;2023-04-03T04:54:00;-0.80;99.90
21778;DHT22;11050;52.222;20.916;2023-04-03T04:56:26;-0.80;99.90
21778;DHT22;11050;52.222;20.916;2023-04-03T04:58:52;-0.70;99.90
21778;DHT22;11050;52.222;20.916;2023-04-03T05:01:18;-0.70;99.90
21778;DHT22;11050;52.222;20.916;2023-04-03T05:03:44;-0.70;99.90
21778;DHT22;11050;52.222;20.916;2023-04-03T05:06:10;-0.60;99.90
21778;DHT22;11050;52.222;20.916;2023-04-03T05:08:35;-0.60;99.90
21778;DHT22;11050;52.222;20.916;2023-04-03T05:11:01;-0.60;99.90
21778;DHT22;11050;52.222;20.916;2023-04-03T05:13:27;-0.50;99.90
21778;DHT22;11050;52.222;20.916;2023-04-03T05:15:53;-0.50;99.90
21778;DHT22;11050;52.222;20.916;2023-04-03T05:18:19;-0.40;99.90
21778;DHT22;11050;52.222;20.916;2023-04-03T05:20:44;-0.40;99.90
21778;DHT22;11050;52.222;20.916;2023-04-03T05:23:11;-0.40;99.90
21778;DHT22;11050;52.222;20.916;2023-04-03T05:25:40;-0.30;99.90
21778;DHT22;11050;52.222;20.916;2023-04-03T05:28:06;-0.30;99.90
21778;DHT22;11050;52.222;20.916;2023-04-03T05:30:33;-0.20;99.90
21778;DHT22;11050;52.222;20.916;2023-04-03T05:32:59;-0.20;99.90
21778;DHT22;11050;52.222;20.916;2023-04-03T05:35:25;-0.10;99.90
21778;DHT22;11050;52.222;20.916;2023-04-03T05:37:50;-0.10;99.90
21778;DHT22;11050;52.222;20.916;2023-04-03T05:40:16;-0.10;99.90
21778;DHT22;11050;52.222;20.916;2023-04-03T05:42:44;0.00;99.90
21778;DHT22;11050;52.222;20.916;2023-04-03T05:45:10;0.00;99.90
21778;DHT22;11050;52.222;20.916;2023-04-03T05:47:36;0.00;99.90
21778;DHT22;11050;52.222;20.916;2023-04-03T05:50:02;0.00;99.90
21778;DHT22;11050;52.222;20.916;2023-04-03T05:52:36;0.10;99.90
21778;DHT22;11050;52.222;20.916;2023-04-03T05:55:06;0.10;99.90
21778;DHT22;11050;52.222;20.916;2023-04-03T05:57:32;0.10;99.90
21778;DHT22;11050;52.222;20.916;2023-04-03T05:59:58;0.10;99.90
21778;DHT22;11050;52.222;20.916;2023-04-03T06:02:24;0.10;99.90
21778;DHT22;11050;52.222;20.916;2023-04-03T06:04:50;0.10;99.90
21778;DHT22;11050;52.222;20.916;2023-04-03T06:07:18;0.20;99.90
21778;DHT22;11050;52.222;20.916;2023-04-03T06:09:46;0.10;99.90
21778;DHT22;11050;52.222;20.916;2023-04-03T06:12:13;0.10;99.90
21778;DHT22;11050;52.222;20.916;2023-04-03T06:14:39;0.10;99.90
21778;DHT22;11050;52.222;20.916;2023-04-03T06:17:05;0.10;99.90
21778;DHT22;11050;52.222;20.916;2023-04-03T06:19:31;0.10;99.90
21778;DHT22;11050;52.222;20.916;2023-04-03T06:21:57;0.10;99.90
21778;DHT22;11050;52.222;20.916;2023-04-03T06:24:24;0.10;99.90
21778;DHT22;11050;52.222;20.916;2023-04-03T06:26:50;0.10;99.90
21778;DHT22;11050;52.222;20.916;2023-04-03T06:29:18;0.10;99.90
21778;DHT22;11050;52.222;20.916;2023-04-03T06:31:45;0.10;99.90
21778;DHT22;11050;52.222;20.916;2023-04-03T06:34:11;0.20;99.90
21778;DHT22;11050;52.222;20.916;2023-04-03T06:36:38;0.20;99.90
21778;DHT22;11050;52.222;20.916;2023-04-03T06:39:04;0.20;99.90
21778;DHT22;11050;52.222;20.916;2023-04-03T06:41:31;0.30;99.90
21778;DHT22;11050;52.222;20.916;2023-04-03T06:43:57;0.40;99.90
21778;DHT22;11050;52.222;20.916;2023-04-03T06:46:24;0.50;99.90
21778;DHT22;11050;52.222;20.916;2023-04-03T06:48:51;0.60;99.90
21778;DHT22;11050;52.222;20.916;2023-04-03T06:51:25;0.60;99.90
21778;DHT22;11050;52.222;20.916;2023-04-03T06:53:54;0.70;99.90
21778;DHT22;11050;52.222;20.916;2023-04-03T06:56:22;0.70;99.90
21778;DHT22;11050;52.222;20.916;2023-04-03T06:58:48;0.80;99.90
21778;DHT22;11050;52.222;20.916;2023-04-03T07:01:15;0.90;99.90
21778;DHT22;11050;52.222;20.916;2023-04-03T07:03:43;0.90;99.90
21778;DHT22;11050;52.222;20.916;2023-04-03T07:06:11;1.00;99.90
21778;DHT22;11050;52.222;20.916;2023-04-03T07:08:38;1.10;99.90
21778;DHT22;11050;52.222;20.916;2023-04-03T07:11:05;1.20;99.90
21778;DHT22;11050;52.222;20.916;2023-04-03T07:13:31;1.20;99.90
21778;DHT22;11050;52.222;20.916;2023-04-03T07:15:58;1.30;99.90
21778;DHT22;11050;52.222;20.916;2023-04-03T07:18:24;1.30;99.90
21778;DHT22;11050;52.222;20.916;2023-04-03T07:20:51;1.40;99.90
21778;DHT22;11050;52.222;20.916;2023-04-03T07:23:18;1.50;99.90
21778;DHT22;11050;52.222;20.916;2023-04-03T07:25:45;1.60;99.90
21778;DHT22;11050;52.222;20.916;2023-04-03T07:28:13;1.60;99.90
21778;DHT22;11050;52.222;20.916;2023-04-03T07:33:10;1.80;99.50
21778;DHT22;11050;52.222;20.916;2023-04-03T07:35:37;1.90;99.30
21778;DHT22;11050;52.222;20.916;2023-04-03T07:38:03;1.90;99.20
21778;DHT22;11050;52.222;20.916;2023-04-03T07:40:28;2.00;98.00
21778;DHT22;11050;52.222;20.916;2023-04-03T07:42:54;2.00;97.20
21778;DHT22;11050;52.222;20.916;2023-04-03T07:45:22;2.10;97.50
21778;DHT22;11050;52.222;20.916;2023-04-03T07:47:48;2.20;96.80
21778;DHT22;11050;52.222;20.916;2023-04-03T07:50:14;2.20;96.00
21778;DHT22;11050;52.222;20.916;2023-04-03T07:52:40;2.30;95.60
21778;DHT22;11050;52.222;20.916;2023-04-03T07:55:06;2.40;95.80
21778;DHT22;11050;52.222;20.916;2023-04-03T07:57:33;2.50;95.50
21778;DHT22;11050;52.222;20.916;2023-04-03T07:59:58;2.50;93.80
21778;DHT22;11050;52.222;20.916;2023-04-03T08:02:24;2.60;92.70
21778;DHT22;11050;52.222;20.916;2023-04-03T08:04:50;2.60;93.00
21778;DHT22;11050;52.222;20.916;2023-04-03T08:07:16;2.70;93.60
21778;DHT22;11050;52.222;20.916;2023-04-03T08:09:42;2.80;93.50
21778;DHT22;11050;52.222;20.916;2023-04-03T08:12:07;3.00;93.10
21778;DHT22;11050;52.222;20.916;2023-04-03T08:14:33;3.10;90.90
21778;DHT22;11050;52.222;20.916;2023-04-03T08:17:02;3.20;89.30
21778;DHT22;11050;52.222;20.916;2023-04-03T08:19:30;3.20;87.50
21778;DHT22;11050;52.222;20.916;2023-04-03T08:21:56;3.20;85.30
21778;DHT22;11050;52.222;20.916;2023-04-03T08:24:24;3.20;84.20
21778;DHT22;11050;52.222;20.916;2023-04-03T08:26:50;3.20;84.20
21778;DHT22;11050;52.222;20.916;2023-04-03T08:29:16;3.30;84.00
21778;DHT22;11050;52.222;20.916;2023-04-03T08:31:42;3.30;82.80
21778;DHT22;11050;52.222;20.916;2023-04-03T08:34:08;3.30;82.60
21778;DHT22;11050;52.222;20.916;2023-04-03T08:36:34;3.20;81.20
21778;DHT22;11050;52.222;20.916;2023-04-03T08:39:00;3.30;80.00
21778;DHT22;11050;52.222;20.916;2023-04-03T08:49:59;3.90;78.70
21778;DHT22;11050;52.222;20.916;2023-04-03T08:52:42;4.00;75.20
21778;DHT22;11050;52.222;20.916;2023-04-03T08:55:26;4.10;75.60
21778;DHT22;11050;52.222;20.916;2023-04-03T08:58:04;4.10;74.90
21778;DHT22;11050;52.222;20.916;2023-04-03T09:03:42;4.20;76.00
21778;DHT22;11050;52.222;20.916;2023-04-03T09:12:17;4.80;73.10
21778;DHT22;11050;52.222;20.916;2023-04-03T09:17:29;5.20;69.80
21778;DHT22;11050;52.222;20.916;2023-04-03T09:22:57;5.30;66.20
21778;DHT22;11050;52.222;20.916;2023-04-03T09:25:27;5.40;69.00
21778;DHT22;11050;52.222;20.916;2023-04-03T09:27:58;5.50;67.50
21778;DHT22;11050;52.222;20.916;2023-04-03T09:30:26;5.50;65.90
21778;DHT22;11050;52.222;20.916;2023-04-03T09:32:55;5.30;65.50
21778;DHT22;11050;52.222;20.916;2023-04-03T09:38:17;5.50;69.20
21778;DHT22;11050;52.222;20.916;2023-04-03T09:40:48;5.70;65.60
21778;DHT22;11050;52.222;20.916;2023-04-03T09:43:20;5.70;66.70
21778;DHT22;11050;52.222;20.916;2023-04-03T09:45:50;5.90;65.10
21778;DHT22;11050;52.222;20.916;2023-04-03T09:48:28;6.00;67.70
21778;DHT22;11050;52.222;20.916;2023-04-03T09:50:59;6.20;65.30
21778;DHT22;11050;52.222;20.916;2023-04-03T09:53:41;6.30;64.30
21778;DHT22;11050;52.222;20.916;2023-04-03T09:58:48;6.30;61.50
21778;DHT22;11050;52.222;20.916;2023-04-03T10:01:38;6.20;61.80
21778;DHT22;11050;52.222;20.916;2023-04-03T10:04:39;6.20;62.50
21778;DHT22;11050;52.222;20.916;2023-04-03T10:07:35;6.20;62.90
21778;DHT22;11050;52.222;20.916;2023-04-03T10:10:29;6.40;62.30
21778;DHT22;11050;52.222;20.916;2023-04-03T10:13:09;6.50;60.50
21778;DHT22;11050;52.222;20.916;2023-04-03T10:15:45;6.50;59.60
21778;DHT22;11050;52.222;20.916;2023-04-03T10:21:45;6.30;59.70
21778;DHT22;11050;52.222;20.916;2023-04-03T10:27:10;6.00;59.70
21778;DHT22;11050;52.222;20.916;2023-04-03T10:38:40;5.60;62.20
21778;DHT22;11050;52.222;20.916;2023-04-03T10:41:46;5.80;62.00
21778;DHT22;11050;52.222;20.916;2023-04-03T10:50:35;6.90;60.00
21778;DHT22;11050;52.222;20.916;2023-04-03T10:55:42;7.00;55.40
21778;DHT22;11050;52.222;20.916;2023-04-03T10:58:31;6.80;55.70
21778;DHT22;11050;52.222;20.916;2023-04-03T11:01:15;6.70;57.00
21778;DHT22;11050;52.222;20.916;2023-04-03T11:03:52;6.60;57.80
21778;DHT22;11050;52.222;20.916;2023-04-03T11:06:25;6.40;58.20
21778;DHT22;11050;52.222;20.916;2023-04-03T11:09:01;6.30;58.00
21778;DHT22;11050;52.222;20.916;2023-04-03T11:11:39;6.30;56.60
21778;DHT22;11050;52.222;20.916;2023-04-03T11:19:47;7.00;57.60
21778;DHT22;11050;52.222;20.916;2023-04-03T11:22:35;7.50;56.30
21778;DHT22;11050;52.222;20.916;2023-04-03T11:28:05;8.40;54.40
21778;DHT22;11050;52.222;20.916;2023-04-03T11:36:43;9.30;52.10
21778;DHT22;11050;52.222;20.916;2023-04-03T11:39:31;9.10;49.20
21778;DHT22;11050;52.222;20.916;2023-04-03T11:50:45;9.10;53.20
21778;DHT22;11050;52.222;20.916;2023-04-03T12:00:55;10.30;47.50
21778;DHT22;11050;52.222;20.916;2023-04-03T12:08:47;9.30;47.10
21778;DHT22;11050;52.222;20.916;2023-04-03T12:16:27;8.50;51.00
21778;DHT22;11050;52.222;20.916;2023-04-03T12:24:36;9.10;49.60
21778;DHT22;11050;52.222;20.916;2023-04-03T12:35:31;10.10;44.20
21778;DHT22;11050;52.222;20.916;2023-04-03T12:47:36;9.50;47.90
21778;DHT22;11050;52.222;20.916;2023-04-03T12:50:17;9.90;48.30
21778;DHT22;11050;52.222;20.916;2023-04-03T12:52:54;10.00;47.90
21778;DHT22;11050;52.222;20.916;2023-04-03T12:55:24;10.00;47.90
21778;DHT22;11050;52.222;20.916;2023-04-03T12:57:51;10.00;47.40
21778;DHT22;11050;52.222;20.916;2023-04-03T13:00:22;9.70;46.40
21778;DHT22;11050;52.222;20.916;2023-04-03T13:02:59;9.50;46.50
21778;DHT22;11050;52.222;20.916;2023-04-03T13:05:28;9.60;47.40
21778;DHT22;11050;52.222;20.916;2023-04-03T13:08:04;9.60;46.20
21778;DHT22;11050;52.222;20.916;2023-04-03T13:10:45;9.60;45.90
21778;DHT22;11050;52.222;20.916;2023-04-03T13:13:17;9.60;45.60
21778;DHT22;11050;52.222;20.916;2023-04-03T13:15:46;9.50;46.50
21778;DHT22;11050;52.222;20.916;2023-04-03T13:18:35;9.30;47.60
21778;DHT22;11050;52.222;20.916;2023-04-03T13:21:10;8.90;48.10
21778;DHT22;11050;52.222;20.916;2023-04-03T13:23:45;8.70;48.60
21778;DHT22;11050;52.222;20.916;2023-04-03T13:26:16;8.60;48.10
21778;DHT22;11050;52.222;20.916;2023-04-03T13:28:45;8.50;48.10
21778;DHT22;11050;52.222;20.916;2023-04-03T13:36:35;8.60;49.90
21778;DHT22;11050;52.222;20.916;2023-04-03T13:41:46;9.00;48.50
21778;DHT22;11050;52.222;20.916;2023-04-03T13:49:41;8.60;48.70
21778;DHT22;11050;52.222;20.916;2023-04-03T13:52:32;8.60;48.30
21778;DHT22;11050;52.222;20.916;2023-04-03T13:55:23;8.90;49.10
21778;DHT22;11050;52.222;20.916;2023-04-03T14:00:39;9.70;48.50
21778;DHT22;11050;52.222;20.916;2023-04-03T14:03:31;10.00;48.10
21778;DHT22;11050;52.222;20.916;2023-04-03T14:06:11;10.20;45.90
21778;DHT22;11050;52.222;20.916;2023-04-03T14:08:39;10.20;44.80
21778;DHT22;11050;52.222;20.916;2023-04-03T14:11:05;9.90;45.20
21778;DHT22;11050;52.222;20.916;2023-04-03T14:13:32;9.60;45.50
21778;DHT22;11050;52.222;20.916;2023-04-03T14:15:58;9.30;46.00
21778;DHT22;11050;52.222;20.916;2023-04-03T14:18:23;9.00;45.70
21778;DHT22;11050;52.222;20.916;2023-04-03T14:20:50;8.70;46.40
21778;DHT22;11050;52.222;20.916;2023-04-03T14:23:16;8.40;47.20
21778;DHT22;11050;52.222;20.916;2023-04-03T14:25:42;8.20;47.80
21778;DHT22;11050;52.222;20.916;2023-04-03T14:28:20;8.00;47.90
21778;DHT22;11050;52.222;20.916;2023-04-03T14:30:50;7.70;48.70
21778;DHT22;11050;52.222;20.916;2023-04-03T14:33:20;7.50;49.30
21778;DHT22;11050;52.222;20.916;2023-04-03T14:35:47;7.30;49.90
21778;DHT22;11050;52.222;20.916;2023-04-03T14:38:32;7.20;50.50
21778;DHT22;11050;52.222;20.916;2023-04-03T14:40:58;7.00;50.60
21778;DHT22;11050;52.222;20.916;2023-04-03T14:43:24;6.90;50.90
21778;DHT22;11050;52.222;20.916;2023-04-03T14:45:51;6.70;51.90
21778;DHT22;11050;52.222;20.916;2023-04-03T14:48:27;6.60;52.40
21778;DHT22;11050;52.222;20.916;2023-04-03T14:50:55;6.50;52.70
21778;DHT22;11050;52.222;20.916;2023-04-03T14:53:21;6.40;53.30
21778;DHT22;11050;52.222;20.916;2023-04-03T14:55:50;6.40;54.00
21778;DHT22;11050;52.222;20.916;2023-04-03T14:58:18;6.30;54.00
21778;DHT22;11050;52.222;20.916;2023-04-03T15:00:46;6.30;54.70
21778;DHT22;11050;52.222;20.916;2023-04-03T15:03:18;6.20;54.80
21778;DHT22;11050;52.222;20.916;2023-04-03T15:05:48;6.20;55.10
21778;DHT22;11050;52.222;20.916;2023-04-03T15:08:25;6.20;55.50
21778;DHT22;11050;52.222;20.916;2023-04-03T15:10:55;6.20;55.50
21778;DHT22;11050;52.222;20.916;2023-04-03T15:13:24;6.10;55.40
21778;DHT22;11050;52.222;20.916;2023-04-03T15:15:51;6.10;55.70
21778;DHT22;11050;52.222;20.916;2023-04-03T15:18:22;6.10;56.20
21778;DHT22;11050;52.222;20.916;2023-04-03T15:20:52;6.10;55.50
21778;DHT22;11050;52.222;20.916;2023-04-03T15:23:19;6.00;55.10
21778;DHT22;11050;52.222;20.916;2023-04-03T15:25:47;5.90;55.80
21778;DHT22;11050;52.222;20.916;2023-04-03T15:28:46;5.90;55.50
21778;DHT22;11050;52.222;20.916;2023-04-03T15:31:12;5.80;56.00
21778;DHT22;11050;52.222;20.916;2023-04-03T15:33:38;5.80;56.40
21778;DHT22;11050;52.222;20.916;2023-04-03T15:36:05;5.70;57.20
21778;DHT22;11050;52.222;20.916;2023-04-03T15:38:31;5.60;56.50
21778;DHT22;11050;52.222;20.916;2023-04-03T15:40:57;5.60;56.60
21778;DHT22;11050;52.222;20.916;2023-04-03T15:43:22;5.60;56.30
21778;DHT22;11050;52.222;20.916;2023-04-03T15:45:49;5.60;56.60
21778;DHT22;11050;52.222;20.916;2023-04-03T15:48:16;5.50;57.10
21778;DHT22;11050;52.222;20.916;2023-04-03T15:50:42;5.50;57.20
21778;DHT22;11050;52.222;20.916;2023-04-03T15:53:09;5.50;57.60
21778;DHT22;11050;52.222;20.916;2023-04-03T15:55:37;5.40;57.70
21778;DHT22;11050;52.222;20.916;2023-04-03T15:58:04;5.40;57.70
21778;DHT22;11050;52.222;20.916;2023-04-03T16:00:32;5.40;58.40
21778;DHT22;11050;52.222;20.916;2023-04-03T16:03:10;5.30;58.30
21778;DHT22;11050;52.222;20.916;2023-04-03T16:05:38;5.30;58.50
21778;DHT22;11050;52.222;20.916;2023-04-03T16:08:05;5.30;58.90
21778;DHT22;11050;52.222;20.916;2023-04-03T16:10:34;5.30;59.30
21778;DHT22;11050;52.222;20.916;2023-04-03T16:13:00;5.20;59.50
21778;DHT22;11050;52.222;20.916;2023-04-03T16:15:26;5.20;59.60
21778;DHT22;11050;52.222;20.916;2023-04-03T16:17:53;5.20;59.60
21778;DHT22;11050;52.222;20.916;2023-04-03T16:20:19;5.10;59.50
21778;DHT22;11050;52.222;20.916;2023-04-03T16:22:47;5.10;59.30
21778;DHT22;11050;52.222;20.916;2023-04-03T16:25:14;5.10;60.00
21778;DHT22;11050;52.222;20.916;2023-04-03T16:27:40;5.00;59.60
21778;DHT22;11050;52.222;20.916;2023-04-03T16:30:07;5.00;59.60
21778;DHT22;11050;52.222;20.916;2023-04-03T16:32:34;5.00;59.70
21778;DHT22;11050;52.222;20.916;2023-04-03T16:35:01;4.90;59.80
21778;DHT22;11050;52.222;20.916;2023-04-03T16:37:27;4.90;59.30
21778;DHT22;11050;52.222;20.916;2023-04-03T16:39:52;4.90;59.10
21778;DHT22;11050;52.222;20.916;2023-04-03T16:42:18;4.80;59.10
21778;DHT22;11050;52.222;20.916;2023-04-03T16:44:44;4.80;59.00
21778;DHT22;11050;52.222;20.916;2023-04-03T16:47:10;4.80;58.80
21778;DHT22;11050;52.222;20.916;2023-04-03T16:49:36;4.70;58.80
21778;DHT22;11050;52.222;20.916;2023-04-03T16:52:03;4.70;59.00
21778;DHT22;11050;52.222;20.916;2023-04-03T16:54:30;4.60;59.30
21778;DHT22;11050;52.222;20.916;2023-04-03T16:56:56;4.60;59.60
21778;DHT22;11050;52.222;20.916;2023-04-03T16:59:22;4.60;60.20
21778;DHT22;11050;52.222;20.916;2023-04-03T17:01:49;4.50;60.80
21778;DHT22;11050;52.222;20.916;2023-04-03T17:04:15;4.50;61.30
21778;DHT22;11050;52.222;20.916;2023-04-03T17:06:41;4.40;61.10
21778;DHT22;11050;52.222;20.916;2023-04-03T17:09:07;4.40;61.50
21778;DHT22;11050;52.222;20.916;2023-04-03T17:11:34;4.40;61.80
21778;DHT22;11050;52.222;20.916;2023-04-03T17:14:01;4.40;61.50
21778;DHT22;11050;52.222;20.916;2023-04-03T17:16:28;4.40;61.50
21778;DHT22;11050;52.222;20.916;2023-04-03T17:18:55;4.30;61.80
21778;DHT22;11050;52.222;20.916;2023-04-03T17:21:21;4.30;62.10
21778;DHT22;11050;52.222;20.916;2023-04-03T17:23:50;4.20;62.60
21778;DHT22;11050;52.222;20.916;2023-04-03T17:26:23;4.20;63.40
21778;DHT22;11050;52.222;20.916;2023-04-03T17:28:50;4.20;63.30
21778;DHT22;11050;52.222;20.916;2023-04-03T17:31:16;4.20;63.60
21778;DHT22;11050;52.222;20.916;2023-04-03T17:33:42;4.20;63.70
21778;DHT22;11050;52.222;20.916;2023-04-03T17:36:08;4.10;63.70
21778;DHT22;11050;52.222;20.916;2023-04-03T17:38:35;4.10;63.70
21778;DHT22;11050;52.222;20.916;2023-04-03T17:41:04;4.10;62.90
21778;DHT22;11050;52.222;20.916;2023-04-03T17:43:31;4.10;62.60
21778;DHT22;11050;52.222;20.916;2023-04-03T17:46:03;4.10;62.60
21778;DHT22;11050;52.222;20.916;2023-04-03T17:48:32;4.10;63.20
21778;DHT22;11050;52.222;20.916;2023-04-03T17:51:11;4.00;63.00
21778;DHT22;11050;52.222;20.916;2023-04-03T17:53:39;4.00;63.40
21778;DHT22;11050;52.222;20.916;2023-04-03T17:56:11;4.00;63.30
21778;DHT22;11050;52.222;20.916;2023-04-03T17:58:39;4.00;63.40
21778;DHT22;11050;52.222;20.916;2023-04-03T18:01:45;3.90;63.50
21778;DHT22;11050;52.222;20.916;2023-04-03T18:04:05;4.00;63.90